Time;durP1;ratioP1;P1;durP2;ratioP2;P2;SDS_P1;SDS_P2;PMS_P1;PMS_P2;Temp;Humidity;BMP_temperature;BMP_pressure;BME280_temperature;BME280_humidity;BME280_pressure;Samples;Min_cycle;Max_cycle;Signal;HPM_P1;HPM_P2
2023/02/28 00:01:10;;;;;;;2.40;1.73;;;;;7.90;102956.00;;;;5087700;28;20205;-73
2023/02/28 00:03:38;;;;;;;2.15;1.50;;;;;7.90;102960.00;;;;5086997;28;20602;-72
2023/02/28 00:06:09;;;;;;;2.00;1.35;;;;;7.90;102958.00;;;;5086790;28;20571;-73
2023/02/28 00:08:37;;;;;;;2.65;1.50;;;;;7.90;102946.00;;;;5085074;28;20194;-73
2023/02/28 00:11:06;;;;;;;2.17;1.27;;;;;7.90;102949.00;;;;5078646;28;20584;-72
2023/02/28 00:13:35;;;;;;;2.63;1.50;;;;;8.00;102939.00;;;;5087256;28;20217;-73
2023/02/28 00:16:03;;;;;;;4.70;1.30;;;;;8.00;102962.00;;;;5087633;28;20673;-73
2023/02/28 00:18:30;;;;;;;3.58;1.42;;;;;8.00;102952.00;;;;5086107;28;20202;-73
2023/02/28 00:20:58;;;;;;;2.60;1.50;;;;;8.10;102959.00;;;;5087999;28;20213;-72
2023/02/28 00:23:27;;;;;;;3.35;1.35;;;;;8.10;102959.00;;;;5090797;28;20218;-72
2023/02/28 00:25:55;;;;;;;1.83;1.10;;;;;8.10;102965.00;;;;5090321;28;20210;-73
2023/02/28 00:28:23;;;;;;;2.38;1.40;;;;;8.20;102965.00;;;;5090407;28;20217;-72
2023/02/28 00:30:50;;;;;;;2.95;1.52;;;;;8.20;102962.00;;;;5091372;28;20199;-73
2023/02/28 00:33:18;;;;;;;1.58;1.33;;;;;8.20;102957.00;;;;5089090;28;20194;-73
2023/02/28 00:35:46;;;;;;;1.70;1.13;;;;;8.30;102959.00;;;;5090539;28;20202;-73
2023/02/28 00:38:14;;;;;;;1.88;1.25;;;;;8.30;102967.00;;;;5090897;28;20205;-73
2023/02/28 00:40:42;;;;;;;2.58;1.50;;;;;8.30;102963.00;;;;5090238;28;20194;-72
2023/02/28 00:43:10;;;;;;;2.45;1.55;;;;;8.40;102954.00;;;;5090095;28;20202;-73
2023/02/28 00:45:37;;;;;;;3.42;1.30;;;;;8.40;102951.00;;;;5091883;28;20198;-73
2023/02/28 00:48:05;;;;;;;1.50;1.13;;;;;8.50;102961.00;;;;5082520;28;20230;-72
2023/02/28 00:50:32;;;;;;;2.08;1.42;;;;;8.50;102956.00;;;;5080183;28;20199;-73
2023/02/28 00:52:59;;;;;;;3.97;1.67;;;;;8.50;102948.00;;;;5089484;28;20206;-73
2023/02/28 00:55:26;;;;;;;5.38;1.70;;;;;8.60;102957.00;;;;5079085;28;20214;-73
2023/02/28 00:57:55;;;;;;;3.33;1.77;;;;;8.60;102945.00;;;;5083146;28;20202;-73
2023/02/28 01:00:22;;;;;;;2.15;1.75;;;;;8.70;102950.00;;;;5091505;28;20213;-73
2023/02/28 01:02:50;;;;;;;2.63;1.58;;;;;8.70;102950.00;;;;5087113;28;20199;-73
2023/02/28 01:05:17;;;;;;;3.05;2.08;;;;;8.70;102959.00;;;;5090873;28;20230;-73
2023/02/28 01:07:44;;;;;;;3.58;1.65;;;;;8.80;102955.00;;;;5090194;28;20198;-73
2023/02/28 01:10:12;;;;;;;3.08;1.50;;;;;8.80;102962.00;;;;5090448;28;20205;-73
2023/02/28 01:12:39;;;;;;;2.70;1.25;;;;;8.80;102962.00;;;;5087365;28;20659;-73
2023/02/28 01:15:10;;;;;;;2.20;1.35;;;;;8.80;102962.00;;;;5089434;28;20593;-73
2023/02/28 01:17:38;;;;;;;4.00;2.03;;;;;8.90;102963.00;;;;5090220;28;20206;-73
2023/02/28 01:20:06;;;;;;;3.83;2.00;;;;;8.90;102964.00;;;;5089310;28;20198;-72
2023/02/28 01:22:35;;;;;;;2.00;1.55;;;;;8.90;102964.00;;;;5089060;28;20190;-72
2023/02/28 01:25:02;;;;;;;2.33;1.50;;;;;9.00;102965.00;;;;5089244;28;20221;-72
2023/02/28 01:27:29;;;;;;;2.03;1.45;;;;;9.00;102954.00;;;;5089786;28;20198;-72
2023/02/28 01:29:56;;;;;;;2.83;1.40;;;;;9.00;102957.00;;;;5090268;28;20190;-72
2023/02/28 01:32:25;;;;;;;2.92;1.63;;;;;9.00;102953.00;;;;5088720;28;20202;-73
2023/02/28 01:34:52;;;;;;;2.80;1.63;;;;;9.00;102953.00;;;;5087780;28;20202;-73
2023/02/28 01:37:20;;;;;;;2.00;1.30;;;;;9.10;102957.00;;;;5088901;28;20201;-73
2023/02/28 01:39:47;;;;;;;1.55;1.38;;;;;9.10;102942.00;;;;5088940;28;20201;-72
2023/02/28 01:42:14;;;;;;;2.70;1.45;;;;;9.10;102949.00;;;;5089086;28;20202;-73
2023/02/28 01:45:04;;;;;;;1.98;1.50;;;;;9.00;102942.00;;;;5089083;28;20300;-73
2023/02/28 01:47:35;;;;;;;2.15;1.48;;;;;9.10;102942.00;;;;5089064;28;20645;-72
2023/02/28 01:50:08;;;;;;;2.05;1.55;;;;;9.10;102939.00;;;;5089535;28;20210;-73
2023/02/28 01:52:36;;;;;;;2.58;1.85;;;;;9.20;102933.00;;;;5087780;28;20277;-73
2023/02/28 01:55:06;;;;;;;2.45;1.23;;;;;9.20;102940.00;;;;5089410;28;20668;-73
2023/02/28 01:57:38;;;;;;;2.88;1.45;;;;;9.20;102937.00;;;;5088806;28;20206;-73
2023/02/28 02:00:10;;;;;;;3.33;1.90;;;;;9.20;102935.00;;;;5089833;28;20194;-73
2023/02/28 02:02:39;;;;;;;1.75;1.30;;;;;9.20;102932.00;;;;5089036;28;20205;-73
2023/02/28 02:05:09;;;;;;;2.78;1.88;;;;;9.30;102936.00;;;;5088068;28;20225;-72
2023/02/28 02:07:38;;;;;;;3.10;1.58;;;;;9.30;102928.00;;;;5088849;28;20206;-73
2023/02/28 02:10:14;;;;;;;1.92;1.33;;;;;9.30;102918.00;;;;5087656;28;20652;-73
2023/02/28 02:13:01;;;;;;;2.55;1.52;;;;;9.20;102922.00;;;;5086977;28;20254;-73
2023/02/28 02:15:34;;;;;;;3.58;1.50;;;;;9.30;102916.00;;;;5089072;28;20230;-73
2023/02/28 02:18:09;;;;;;;4.18;1.80;;;;;9.30;102909.00;;;;5084696;28;20214;-73
2023/02/28 02:21:02;;;;;;;3.78;1.70;;;;;9.30;102907.00;;;;5089561;28;20193;-73
2023/02/28 02:24:08;;;;;;;2.67;1.27;;;;;9.30;102910.00;;;;5088156;28;20201;-73
2023/02/28 02:26:55;;;;;;;2.03;1.40;;;;;9.30;102910.00;;;;5088634;28;20197;-73
2023/02/28 02:29:45;;;;;;;4.50;2.03;;;;;9.30;102924.00;;;;5088397;28;20613;-73
2023/02/28 02:32:46;;;;;;;4.22;1.73;;;;;9.30;102918.00;;;;5083745;28;20202;-73
2023/02/28 02:35:20;;;;;;;2.80;1.73;;;;;9.40;102925.00;;;;5072358;28;20691;-73
2023/02/28 02:37:52;;;;;;;3.30;1.90;;;;;9.40;102924.00;;;;5086906;28;20204;-73
2023/02/28 02:40:22;;;;;;;3.45;2.17;;;;;9.50;102927.00;;;;5086504;28;20225;-73
2023/02/28 02:42:56;;;;;;;4.30;2.40;;;;;9.50;102938.00;;;;5080884;28;20221;-73
2023/02/28 02:45:28;;;;;;;3.50;2.45;;;;;9.50;102937.00;;;;5089415;28;20711;-73
2023/02/28 02:47:59;;;;;;;2.38;1.73;;;;;9.50;102929.00;;;;5088033;28;20226;-73
2023/02/28 02:50:32;;;;;;;1.58;1.48;;;;;9.50;102930.00;;;;5088758;28;20194;-73
2023/02/28 02:53:03;;;;;;;3.35;2.10;;;;;9.50;102933.00;;;;5086809;28;20206;-73
2023/02/28 02:55:35;;;;;;;2.45;1.65;;;;;9.50;102932.00;;;;5088978;28;20190;-73
2023/02/28 02:58:05;;;;;;;4.55;1.75;;;;;9.50;102926.00;;;;5085151;28;20574;-73
2023/02/28 03:00:36;;;;;;;2.67;1.75;;;;;9.50;102926.00;;;;5087674;28;20206;-73
2023/02/28 03:03:05;;;;;;;3.58;1.75;;;;;9.50;102930.00;;;;5078060;28;20202;-73
2023/02/28 03:05:42;;;;;;;6.10;2.00;;;;;9.50;102929.00;;;;5087876;28;20225;-73
2023/02/28 03:08:09;;;;;;;2.15;1.52;;;;;9.60;102931.00;;;;5087663;28;20194;-73
2023/02/28 03:10:39;;;;;;;3.10;1.90;;;;;9.50;102937.00;;;;5087253;28;20205;-73
2023/02/28 03:13:52;;;;;;;4.28;1.70;;;;;9.50;102931.00;;;;5087577;28;20198;-73
2023/02/28 03:16:37;;;;;;;5.68;1.83;;;;;9.50;102929.00;;;;5003954;28;20193;-73
2023/02/28 03:19:18;;;;;;;2.67;1.60;;;;;9.60;102933.00;;;;5005248;28;20635;-72
2023/02/28 03:21:56;;;;;;;2.10;1.50;;;;;9.60;102929.00;;;;5049555;28;20203;-73
2023/02/28 03:24:32;;;;;;;2.80;1.73;;;;;9.60;102920.00;;;;5081681;28;20229;-73
2023/02/28 03:27:05;;;;;;;2.30;1.60;;;;;9.60;102933.00;;;;5087386;28;20960;-73
2023/02/28 03:29:37;;;;;;;3.15;1.73;;;;;9.60;102928.00;;;;5088168;28;20275;-73
2023/02/28 03:32:14;;;;;;;2.97;1.73;;;;;9.70;102929.00;;;;5086884;28;20194;-73
2023/02/28 03:34:47;;;;;;;3.75;2.05;;;;;9.70;102941.00;;;;5087747;28;20205;-73
2023/02/28 03:37:20;;;;;;;2.40;1.77;;;;;9.70;102942.00;;;;5086808;28;20194;-73
2023/02/28 03:39:51;;;;;;;3.28;1.98;;;;;9.70;102940.00;;;;5087513;28;20202;-73
2023/02/28 03:42:22;;;;;;;4.53;1.80;;;;;9.70;102938.00;;;;5085445;28;20198;-73
2023/02/28 03:44:54;;;;;;;2.90;1.42;;;;;9.70;102928.00;;;;5087809;28;20222;-72
2023/02/28 03:47:26;;;;;;;3.25;1.73;;;;;9.70;102933.00;;;;5087185;28;20226;-73
2023/02/28 03:49:58;;;;;;;2.40;1.60;;;;;9.80;102941.00;;;;5084998;28;20198;-72
2023/02/28 03:52:32;;;;;;;3.63;1.95;;;;;9.70;102942.00;;;;5076308;28;20680;-73
2023/02/28 03:55:06;;;;;;;2.30;1.75;;;;;9.80;102940.00;;;;5089695;28;20194;-72
2023/02/28 03:57:38;;;;;;;2.05;1.85;;;;;9.80;102943.00;;;;5091739;28;20205;-73
2023/02/28 04:00:09;;;;;;;2.80;2.00;;;;;9.80;102942.00;;;;5092226;28;20225;-73
2023/02/28 04:02:37;;;;;;;2.33;1.80;;;;;9.80;102939.00;;;;5090436;28;20198;-73
2023/02/28 04:05:04;;;;;;;3.53;1.95;;;;;9.80;102942.00;;;;5089911;28;20218;-73
2023/02/28 04:07:33;;;;;;;2.50;1.98;;;;;9.80;102945.00;;;;5091946;28;20194;-73
2023/02/28 04:10:01;;;;;;;2.15;1.75;;;;;9.90;102944.00;;;;5091210;28;20198;-73
2023/02/28 04:12:28;;;;;;;3.97;1.75;;;;;9.90;102951.00;;;;5090693;28;20195;-73
2023/02/28 04:14:55;;;;;;;2.47;1.48;;;;;9.90;102947.00;;;;5090467;28;20228;-73
2023/02/28 04:17:22;;;;;;;2.35;1.73;;;;;9.90;102959.00;;;;5090990;28;20201;-73
2023/02/28 04:19:50;;;;;;;2.80;1.73;;;;;9.80;102959.00;;;;5090629;28;20197;-72
2023/02/28 04:22:18;;;;;;;3.22;1.92;;;;;9.80;102955.00;;;;5090946;28;20217;-73
2023/02/28 04:24:46;;;;;;;2.60;1.80;;;;;9.80;102964.00;;;;5089725;28;20633;-73
2023/02/28 04:27:15;;;;;;;3.85;2.00;;;;;9.80;102953.00;;;;5087117;28;20194;-73
2023/02/28 04:29:44;;;;;;;2.85;2.03;;;;;9.80;102949.00;;;;5090819;28;20245;-73
2023/02/28 04:32:12;;;;;;;3.15;1.95;;;;;9.80;102955.00;;;;5091866;28;20994;-73
2023/02/28 04:34:39;;;;;;;2.38;1.70;;;;;9.80;102956.00;;;;5091393;28;20205;-73
2023/02/28 04:37:07;;;;;;;2.08;1.60;;;;;9.80;102960.00;;;;5089037;28;20202;-73
2023/02/28 04:39:37;;;;;;;13.55;2.05;;;;;9.80;102958.00;;;;5089903;28;20663;-73
2023/02/28 04:42:05;;;;;;;2.20;1.77;;;;;9.80;102961.00;;;;5083661;28;20202;-72
2023/02/28 04:44:33;;;;;;;2.83;1.63;;;;;9.80;102962.00;;;;5089753;28;20195;-72
2023/02/28 04:47:00;;;;;;;3.17;1.70;;;;;9.80;102965.00;;;;5089346;28;20230;-72
2023/02/28 04:49:27;;;;;;;2.47;1.42;;;;;9.80;102968.00;;;;5089751;28;20210;-72
2023/02/28 04:51:55;;;;;;;3.35;2.00;;;;;9.80;102966.00;;;;5089931;28;20369;-72
2023/02/28 04:54:22;;;;;;;2.67;1.73;;;;;9.80;102971.00;;;;5089556;28;20201;-73
2023/02/28 04:56:50;;;;;;;1.98;1.17;;;;;9.80;102967.00;;;;5085138;28;20206;-72
2023/02/28 04:59:18;;;;;;;2.58;1.55;;;;;9.70;102967.00;;;;5090585;28;20252;-72
2023/02/28 05:01:48;;;;;;;2.67;1.55;;;;;9.70;102960.00;;;;5089224;28;20668;-73
2023/02/28 05:04:16;;;;;;;3.22;1.80;;;;;9.70;102970.00;;;;5089797;28;20206;-72
2023/02/28 05:06:43;;;;;;;2.25;1.45;;;;;9.70;102972.00;;;;5087805;28;20230;-72
2023/02/28 05:09:12;;;;;;;3.45;1.83;;;;;9.70;102968.00;;;;5088622;28;20201;-72
2023/02/28 05:11:39;;;;;;;2.47;1.52;;;;;9.70;102966.00;;;;5088276;28;20202;-72
2023/02/28 05:14:10;;;;;;;1.67;1.45;;;;;9.70;102966.00;;;;5080245;28;20238;-72
2023/02/28 05:16:38;;;;;;;1.58;1.33;;;;;9.60;102959.00;;;;5087795;28;20198;-72
2023/02/28 05:19:05;;;;;;;2.13;1.33;;;;;9.60;102968.00;;;;5089977;28;20206;-72
2023/02/28 05:21:34;;;;;;;2.30;1.65;;;;;9.60;102963.00;;;;5090012;28;20582;-72
2023/02/28 05:24:04;;;;;;;2.75;1.38;;;;;9.60;102966.00;;;;5068361;28;20692;-72
2023/02/28 05:26:32;;;;;;;1.85;1.42;;;;;9.60;102966.00;;;;5084210;28;20576;-72
2023/02/28 05:28:59;;;;;;;2.83;1.60;;;;;9.60;102974.00;;;;5089253;28;20198;-72
2023/02/28 05:31:26;;;;;;;2.92;1.67;;;;;9.60;102969.00;;;;5089584;28;20209;-72
2023/02/28 05:33:55;;;;;;;2.08;1.45;;;;;9.50;102972.00;;;;5089583;28;20202;-72
2023/02/28 05:36:22;;;;;;;2.00;1.48;;;;;9.50;102968.00;;;;5084849;28;20198;-73
2023/02/28 05:38:51;;;;;;;2.03;1.50;;;;;9.50;102963.00;;;;5086568;28;20225;-73
2023/02/28 05:41:20;;;;;;;1.85;1.65;;;;;9.50;102958.00;;;;5087836;28;20708;-72
2023/02/28 05:43:48;;;;;;;1.83;1.33;;;;;9.50;102960.00;;;;5089282;28;20198;-73
2023/02/28 05:46:16;;;;;;;2.35;1.60;;;;;9.50;102954.00;;;;5087196;28;20221;-73
2023/02/28 05:48:46;;;;;;;3.88;1.52;;;;;9.50;102956.00;;;;5049880;28;1068535;-72
2023/02/28 05:51:16;;;;;;;3.10;1.77;;;;;9.50;102955.00;;;;5088296;28;20194;-72
2023/02/28 05:53:43;;;;;;;3.53;1.50;;;;;9.50;102955.00;;;;5088524;28;20727;-73
2023/02/28 05:56:10;;;;;;;2.22;1.33;;;;;9.50;102961.00;;;;5090042;28;20195;-73
2023/02/28 05:58:38;;;;;;;4.05;1.83;;;;;9.50;102970.00;;;;5087225;28;20198;-72
2023/02/28 06:01:22;;;;;;;2.58;1.60;;;;;9.40;102968.00;;;;5087593;28;20472;-73
2023/02/28 06:03:49;;;;;;;1.73;1.25;;;;;9.50;102970.00;;;;5090284;28;20202;-73
2023/02/28 06:06:18;;;;;;;3.03;1.52;;;;;9.40;102964.00;;;;5088527;28;20222;-72
2023/02/28 06:08:47;;;;;;;1.90;1.42;;;;;9.50;102961.00;;;;5086217;28;20198;-73
2023/02/28 06:11:15;;;;;;;2.85;1.75;;;;;9.40;102960.00;;;;5083842;28;20226;-73
2023/02/28 06:13:42;;;;;;;2.55;1.40;;;;;9.40;102956.00;;;;5089813;28;20202;-73
2023/02/28 06:16:11;;;;;;;1.98;1.58;;;;;9.40;102950.00;;;;5082578;28;20252;-73
2023/02/28 06:18:39;;;;;;;3.60;1.67;;;;;9.30;102949.00;;;;5069840;28;20202;-72
2023/02/28 06:21:08;;;;;;;3.25;1.60;;;;;9.30;102956.00;;;;5080589;28;20217;-73
2023/02/28 06:23:37;;;;;;;3.13;1.60;;;;;9.30;102950.00;;;;5089651;28;20287;-73
2023/02/28 06:26:05;;;;;;;1.92;1.55;;;;;9.30;102950.00;;;;5081703;28;20218;-73
2023/02/28 06:28:32;;;;;;;1.90;1.50;;;;;9.30;102951.00;;;;5090129;28;20280;-72
2023/02/28 06:31:00;;;;;;;1.95;1.45;;;;;9.30;102951.00;;;;5087570;28;20266;-72
2023/02/28 06:33:27;;;;;;;2.05;1.65;;;;;9.30;102956.00;;;;5086984;28;20577;-73
2023/02/28 06:35:55;;;;;;;2.13;1.38;;;;;9.30;102947.00;;;;5085586;28;20197;-73
2023/02/28 06:38:22;;;;;;;2.10;1.60;;;;;9.20;102956.00;;;;5089327;28;20195;-73
2023/02/28 06:40:56;;;;;;;2.72;1.58;;;;;9.20;102958.00;;;;5086617;28;20209;-73
2023/02/28 06:43:24;;;;;;;2.33;1.25;;;;;9.20;102943.00;;;;5089681;28;20206;-73
2023/02/28 06:45:54;;;;;;;2.10;1.48;;;;;9.20;102952.00;;;;5089140;28;20229;-73
2023/02/28 06:48:22;;;;;;;1.70;1.40;;;;;9.20;102963.00;;;;5086899;28;20222;-72
2023/02/28 06:50:49;;;;;;;1.98;1.40;;;;;9.30;102968.00;;;;5087744;28;20205;-72
2023/02/28 06:53:16;;;;;;;2.60;1.50;;;;;9.30;102964.00;;;;5087354;28;20205;-72
2023/02/28 06:55:44;;;;;;;4.40;1.73;;;;;9.30;102956.00;;;;5086897;28;20672;-72
2023/02/28 06:58:15;;;;;;;2.20;1.60;;;;;9.30;102966.00;;;;5086104;28;20202;-72
2023/02/28 07:00:43;;;;;;;3.65;1.77;;;;;9.30;102967.00;;;;5087706;28;20567;-72
2023/02/28 07:03:11;;;;;;;2.42;1.67;;;;;9.30;102966.00;;;;5084953;28;20315;-72
2023/02/28 07:05:39;;;;;;;2.13;1.80;;;;;9.30;102963.00;;;;5088397;28;20219;-72
2023/02/28 07:08:07;;;;;;;3.88;2.00;;;;;9.30;102970.00;;;;5086910;28;20206;-72
2023/02/28 07:10:34;;;;;;;2.90;1.92;;;;;9.30;102974.00;;;;5080970;28;20194;-72
2023/02/28 07:13:02;;;;;;;2.60;1.70;;;;;9.40;102979.00;;;;5087376;28;20591;-71
2023/02/28 07:15:30;;;;;;;3.78;2.60;;;;;9.40;102981.00;;;;5086264;28;20222;-72
2023/02/28 07:17:58;;;;;;;2.67;1.70;;;;;9.40;102982.00;;;;5087188;28;20202;-72
2023/02/28 07:20:25;;;;;;;2.58;1.52;;;;;9.40;102975.00;;;;5088251;28;20201;-72
2023/02/28 07:22:56;;;;;;;1.92;1.40;;;;;9.40;102977.00;;;;5088601;28;20660;-72
2023/02/28 07:25:24;;;;;;;1.35;1.23;;;;;9.40;102979.00;;;;5068256;28;20199;-72
2023/02/28 07:27:51;;;;;;;3.00;1.45;;;;;9.50;102973.00;;;;5071804;28;20490;-72
2023/02/28 07:30:26;;;;;;;2.40;1.17;;;;;9.40;102984.00;;;;5078664;28;20199;-73
2023/02/28 07:32:55;;;;;;;1.52;1.08;;;;;9.50;102978.00;;;;5077041;28;20212;-73
2023/02/28 07:35:23;;;;;;;1.55;1.27;;;;;9.50;102987.00;;;;5078369;28;20620;-72
2023/02/28 07:37:50;;;;;;;1.55;1.40;;;;;9.60;102989.00;;;;5081175;28;20183;-74
2023/02/28 07:40:18;;;;;;;2.92;1.20;;;;;9.60;102990.00;;;;5076986;28;20210;-72
2023/02/28 07:42:46;;;;;;;1.70;1.08;;;;;9.60;102987.00;;;;5075942;28;20197;-74
2023/02/28 07:45:13;;;;;;;2.20;1.10;;;;;9.60;102979.00;;;;5077997;28;20206;-74
2023/02/28 07:47:41;;;;;;;2.00;1.38;;;;;9.70;102982.00;;;;5076163;28;20232;-74
2023/02/28 07:50:15;;;;;;;2.55;1.23;;;;;9.70;102995.00;;;;5079741;28;20187;-73
2023/02/28 07:52:43;;;;;;;4.10;1.25;;;;;9.80;102988.00;;;;5077032;28;20198;-73
2023/02/28 07:55:11;;;;;;;1.48;1.08;;;;;9.80;103006.00;;;;5079233;28;20198;-73
2023/02/28 07:57:39;;;;;;;2.10;1.45;;;;;9.90;103003.00;;;;5073586;28;20207;-73
2023/02/28 08:00:09;;;;;;;1.45;1.13;;;;;9.90;103002.00;;;;5077494;28;20221;-74
2023/02/28 08:02:36;;;;;;;3.63;1.50;;;;;9.90;103007.00;;;;5084114;28;20683;-74
2023/02/28 08:05:04;;;;;;;1.23;1.08;;;;;10.00;103003.00;;;;5083747;28;20672;-74
2023/02/28 08:07:33;;;;;;;2.38;1.38;;;;;10.00;103015.00;;;;5085466;28;20226;-74
2023/02/28 08:10:00;;;;;;;2.38;1.40;;;;;10.10;103007.00;;;;5085043;28;20225;-73
2023/02/28 08:12:27;;;;;;;2.00;1.10;;;;;10.10;103005.00;;;;5085542;28;20556;-73
2023/02/28 08:14:55;;;;;;;2.80;1.60;;;;;10.20;103017.00;;;;5086449;28;20218;-73
2023/02/28 08:17:22;;;;;;;3.17;1.55;;;;;10.20;103012.00;;;;5083614;28;20641;-73
2023/02/28 08:19:49;;;;;;;2.60;1.52;;;;;10.30;103017.00;;;;5100724;28;20193;-73
2023/02/28 08:22:17;;;;;;;1.88;1.33;;;;;10.30;103012.00;;;;5083493;28;20629;-73
2023/02/28 08:24:46;;;;;;;2.22;1.63;;;;;10.30;103014.00;;;;5085395;28;20198;-73
2023/02/28 08:27:13;;;;;;;1.70;1.45;;;;;10.40;103022.00;;;;5075990;28;20291;-74
2023/02/28 08:29:40;;;;;;;1.75;1.25;;;;;10.50;103020.00;;;;5086105;28;20299;-73
2023/02/28 08:32:08;;;;;;;2.00;1.23;;;;;10.50;103026.00;;;;5085694;28;20195;-74
2023/02/28 08:34:36;;;;;;;3.45;1.55;;;;;10.50;103023.00;;;;5084147;28;20199;-74
2023/02/28 08:37:03;;;;;;;2.33;1.20;;;;;10.50;103013.00;;;;5083884;28;20676;-74
2023/02/28 08:39:30;;;;;;;8.82;5.25;;;;;10.60;103015.00;;;;5088764;28;20191;-74
2023/02/28 08:41:59;;;;;;;6.78;4.70;;;;;10.60;103020.00;;;;5087793;28;20201;-75
2023/02/28 08:44:27;;;;;;;3.92;2.70;;;;;10.60;103019.00;;;;5087330;28;20213;-74
2023/02/28 08:46:54;;;;;;;4.03;2.17;;;;;10.60;103013.00;;;;5085653;28;20325;-74
2023/02/28 08:49:21;;;;;;;2.83;1.90;;;;;10.70;103020.00;;;;5087701;28;20627;-74
2023/02/28 08:51:48;;;;;;;3.28;1.70;;;;;10.70;103019.00;;;;5089371;28;20655;-74
2023/02/28 08:54:19;;;;;;;1.98;1.40;;;;;10.70;103013.00;;;;5087123;28;20194;-74
2023/02/28 08:56:47;;;;;;;2.45;1.58;;;;;10.70;103013.00;;;;5087796;28;20307;-74
2023/02/28 08:59:15;;;;;;;2.20;1.40;;;;;10.70;103009.00;;;;5096580;28;20233;-74
2023/02/28 09:01:44;;;;;;;3.45;1.45;;;;;10.80;103009.00;;;;5091474;28;20194;-74
2023/02/28 09:04:11;;;;;;;2.10;1.60;;;;;10.90;103018.00;;;;5086773;28;20244;-74
2023/02/28 09:06:39;;;;;;;2.40;1.83;;;;;10.90;103006.00;;;;5085759;28;20321;-74
2023/02/28 09:09:07;;;;;;;1.70;1.55;;;;;11.00;103005.00;;;;5092243;28;20228;-74
2023/02/28 09:11:35;;;;;;;2.15;1.45;;;;;11.10;103017.00;;;;5087849;28;20228;-74
2023/02/28 09:14:04;;;;;;;2.10;1.35;;;;;11.20;103016.00;;;;5089954;28;20605;-75
2023/02/28 09:16:33;;;;;;;3.55;1.50;;;;;11.30;103008.00;;;;5091275;28;20222;-74
2023/02/28 09:19:01;;;;;;;2.42;1.70;;;;;11.50;103013.00;;;;5082606;28;20381;-74
2023/02/28 09:21:28;;;;;;;2.53;1.85;;;;;11.60;103014.00;;;;5088584;28;20956;-74
2023/02/28 09:23:56;;;;;;;2.03;1.38;;;;;11.60;103007.00;;;;5087732;28;20568;-74
2023/02/28 09:26:25;;;;;;;1.98;1.30;;;;;11.70;103009.00;;;;5087164;28;20694;-74
2023/02/28 09:28:54;;;;;;;1.48;0.80;;;;;11.70;103012.00;;;;5087113;28;20199;-74
2023/02/28 09:31:24;;;;;;;1.27;0.85;;;;;11.80;103027.00;;;;5088252;28;20205;-74
2023/02/28 09:33:55;;;;;;;1.50;1.23;;;;;11.80;103022.00;;;;5089180;28;20205;-74
2023/02/28 09:36:23;;;;;;;2.72;1.00;;;;;11.80;103026.00;;;;5087823;28;20202;-74
2023/02/28 09:38:52;;;;;;;1.15;0.90;;;;;11.80;103025.00;;;;5086373;28;20699;-74
2023/02/28 09:41:23;;;;;;;1.88;1.05;;;;;11.90;103019.00;;;;5084643;28;20198;-74
2023/02/28 09:43:53;;;;;;;1.10;0.90;;;;;11.90;103025.00;;;;5088506;28;20571;-74
2023/02/28 09:46:31;;;;;;;2.17;0.85;;;;;11.80;103016.00;;;;5091304;28;20214;-75
2023/02/28 09:49:01;;;;;;;1.38;0.90;;;;;11.90;103016.00;;;;5089226;28;20614;-71
2023/02/28 09:51:48;;;;;;;3.60;0.80;;;;;11.80;103026.00;;;;5092596;28;20200;-71
2023/02/28 09:54:19;;;;;;;1.13;0.85;;;;;11.90;103021.00;;;;5097529;28;20202;-74
2023/02/28 09:56:52;;;;;;;1.52;0.90;;;;;11.90;103021.00;;;;5086110;28;20686;-74
2023/02/28 09:59:32;;;;;;;2.10;1.00;;;;;11.90;103023.00;;;;5073024;28;20206;-74
2023/02/28 10:02:09;;;;;;;1.35;1.15;;;;;12.00;103018.00;;;;5087233;28;20202;-75
2023/02/28 10:04:51;;;;;;;4.22;1.50;;;;;12.00;103030.00;;;;5078761;28;20202;-74
2023/02/28 10:07:27;;;;;;;1.25;1.00;;;;;12.10;103026.00;;;;5086721;28;20222;-74
2023/02/28 10:09:58;;;;;;;1.10;1.00;;;;;12.20;103020.00;;;;5086855;28;20485;-75
2023/02/28 10:12:26;;;;;;;1.42;1.00;;;;;12.40;103023.00;;;;5085691;28;20210;-72
2023/02/28 10:14:57;;;;;;;1.33;1.10;;;;;12.50;103023.00;;;;5085057;28;20217;-73
2023/02/28 10:17:27;;;;;;;1.38;1.08;;;;;12.60;103012.00;;;;5085015;28;20195;-73
2023/02/28 10:20:07;;;;;;;2.03;1.00;;;;;12.70;103011.00;;;;5087489;28;20201;-73
2023/02/28 10:22:42;;;;;;;1.40;1.00;;;;;12.90;103010.00;;;;5089301;28;20664;-73
2023/02/28 10:25:20;;;;;;;1.52;1.00;;;;;12.80;103013.00;;;;5087502;28;20194;-73
2023/02/28 10:27:47;;;;;;;1.42;1.10;;;;;12.90;103000.00;;;;5088334;28;20222;-74
2023/02/28 10:30:15;;;;;;;1.40;1.30;;;;;13.00;103005.00;;;;5087505;28;20209;-74
2023/02/28 10:32:53;;;;;;;1.27;1.13;;;;;12.90;102998.00;;;;5088594;28;20198;-74
2023/02/28 10:35:23;;;;;;;1.10;0.90;;;;;13.00;102996.00;;;;5087172;28;20194;-74
2023/02/28 10:37:54;;;;;;;1.73;0.93;;;;;13.10;103010.00;;;;5087222;28;20270;-74
2023/02/28 10:40:31;;;;;;;1.15;1.05;;;;;13.00;103014.00;;;;5077870;28;20676;-73
2023/02/28 10:43:00;;;;;;;1.15;0.70;;;;;13.10;103009.00;;;;5088950;28;20201;-73
2023/02/28 10:45:29;;;;;;;0.88;0.80;;;;;13.10;103011.00;;;;5088139;28;20210;-74
2023/02/28 10:48:00;;;;;;;1.85;1.30;;;;;13.10;103007.00;;;;5088877;28;20727;-73
2023/02/28 10:50:39;;;;;;;1.42;1.10;;;;;13.10;103011.00;;;;5087066;28;20206;-74
2023/02/28 10:53:24;;;;;;;1.58;0.95;;;;;13.10;103016.00;;;;5088815;28;20202;-74
2023/02/28 10:55:58;;;;;;;2.97;0.90;;;;;13.10;103009.00;;;;5086430;28;20200;-73
2023/02/28 10:58:28;;;;;;;1.00;0.90;;;;;13.20;102994.00;;;;5086206;28;20281;-74
2023/02/28 11:00:55;;;;;;;2.67;1.38;;;;;13.20;102998.00;;;;5087133;28;20191;-73
2023/02/28 11:03:32;;;;;;;1.30;1.20;;;;;13.20;102989.00;;;;5086947;28;20199;-73
2023/02/28 11:06:05;;;;;;;1.73;1.10;;;;;13.20;102982.00;;;;5076566;28;20668;-73
2023/02/28 11:08:33;;;;;;;1.73;1.17;;;;;13.20;102992.00;;;;5084919;28;20222;-74
2023/02/28 11:11:05;;;;;;;2.67;1.17;;;;;13.20;102976.00;;;;5085209;28;20465;-73
2023/02/28 11:13:34;;;;;;;1.20;1.05;;;;;13.20;102977.00;;;;5086417;28;20197;-74
2023/02/28 11:16:05;;;;;;;1.83;1.30;;;;;13.30;102978.00;;;;5086224;28;20248;-73
2023/02/28 11:18:39;;;;;;;2.03;1.08;;;;;13.30;102976.00;;;;5086115;28;20213;-74
2023/02/28 11:21:09;;;;;;;2.05;1.08;;;;;13.30;102975.00;;;;5086900;28;20201;-73
2023/02/28 11:23:41;;;;;;;2.30;1.40;;;;;13.40;102964.00;;;;5086779;28;20206;-73
2023/02/28 11:26:10;;;;;;;1.63;1.25;;;;;13.40;102967.00;;;;5086754;28;20201;-73
2023/02/28 11:28:40;;;;;;;1.77;1.25;;;;;13.40;102970.00;;;;5086352;28;20717;-73
2023/02/28 11:31:19;;;;;;;1.60;1.00;;;;;13.40;102961.00;;;;5085231;28;20685;-73
2023/02/28 11:33:50;;;;;;;1.48;1.17;;;;;13.50;102969.00;;;;5085638;28;20198;-73
2023/02/28 11:36:24;;;;;;;1.63;0.98;;;;;13.50;102961.00;;;;5088118;28;20731;-73
2023/02/28 11:38:53;;;;;;;1.13;0.90;;;;;13.50;102964.00;;;;5084178;28;20240;-73
2023/02/28 11:41:42;;;;;;;1.70;1.20;;;;;13.50;102960.00;;;;5083895;28;20202;-73
2023/02/28 11:44:28;;;;;;;1.25;1.02;;;;;13.50;102956.00;;;;5087565;28;20213;-73
2023/02/28 11:47:00;;;;;;;2.05;1.00;;;;;13.60;102955.00;;;;5087358;28;20599;-74
2023/02/28 11:49:39;;;;;;;2.42;0.98;;;;;13.60;102957.00;;;;5087057;28;20251;-74
2023/02/28 11:52:21;;;;;;;1.58;1.13;;;;;13.70;102960.00;;;;5087006;28;20186;-74
2023/02/28 11:55:09;;;;;;;2.88;1.42;;;;;13.70;102955.00;;;;5086237;28;20289;-73
2023/02/28 11:57:51;;;;;;;3.67;1.20;;;;;13.70;102963.00;;;;5085812;28;20664;-74
2023/02/28 12:00:34;;;;;;;2.55;1.75;;;;;13.70;102955.00;;;;5086922;28;20194;-74
2023/02/28 12:03:12;;;;;;;2.55;1.20;;;;;13.70;102941.00;;;;5083247;28;20194;-74
2023/02/28 12:05:45;;;;;;;2.22;1.17;;;;;13.80;102944.00;;;;5086456;28;20190;-73
2023/02/28 12:08:27;;;;;;;1.40;1.20;;;;;13.70;102949.00;;;;5075982;28;20221;-73
2023/02/28 12:11:04;;;;;;;1.58;0.88;;;;;13.80;102949.00;;;;5087197;28;20198;-74
2023/02/28 12:13:45;;;;;;;1.42;1.17;;;;;13.80;102943.00;;;;5086637;28;20202;-73
2023/02/28 12:16:40;;;;;;;2.63;1.38;;;;;13.80;102939.00;;;;5089921;28;20212;-74
2023/02/28 12:19:16;;;;;;;1.83;1.40;;;;;13.90;102947.00;;;;5090942;28;20687;-73
2023/02/28 12:22:16;;;;;;;1.50;1.25;;;;;13.90;102932.00;;;;5090730;28;20202;-74
2023/02/28 12:25:14;;;;;;;1.45;1.20;;;;;13.90;102933.00;;;;5084785;28;20435;-74
2023/02/28 12:27:45;;;;;;;0.80;0.80;;;;;14.00;102934.00;;;;5087493;28;20226;-73
2023/02/28 12:30:20;;;;;;;1.27;0.85;;;;;14.00;102928.00;;;;5090107;28;20206;-74
2023/02/28 12:32:51;;;;;;;1.67;1.10;;;;;14.00;102926.00;;;;5090063;28;20201;-74